createdAt,value
2018-07-23T00:00:16.460Z,87.3
2018-07-23T00:01:16.487Z,87.3
2018-07-23T00:02:16.729Z,87.5
2018-07-23T00:03:16.985Z,87.6
2018-07-23T00:04:17.260Z,87.7
2018-07-23T00:05:16.527Z,87.6
2018-07-23T00:06:16.794Z,87.6
2018-07-23T00:07:17.270Z,87.6
2018-07-23T00:08:16.562Z,87.6
2018-07-23T00:09:16.823Z,87.7
2018-07-23T00:10:17.087Z,87.7
2018-07-23T00:11:17.138Z,87.7
2018-07-23T00:12:16.410Z,87.8
2018-07-23T00:13:16.677Z,87.8
2018-07-23T00:14:16.936Z,87.8
2018-07-23T00:15:17.191Z,87.8
2018-07-23T00:16:16.457Z,87.8
2018-07-23T00:17:16.724Z,87.6
2018-07-23T00:18:16.998Z,87.6
2018-07-23T00:19:16.256Z,87.7
2018-07-23T00:20:16.521Z,87.6
2018-07-23T00:21:16.556Z,87.7
2018-07-23T00:22:16.812Z,87.8
2018-07-23T00:23:17.079Z,87.8
2018-07-23T00:24:16.342Z,87.8
2018-07-23T00:25:16.602Z,88.0
2018-07-23T00:26:16.873Z,87.8
2018-07-23T00:27:17.140Z,87.8
2018-07-23T00:28:16.396Z,87.7
2018-07-23T00:29:16.643Z,87.8
2018-07-23T00:30:16.910Z,87.9
2018-07-23T00:31:16.954Z,87.8
2018-07-23T00:32:17.223Z,87.8
2018-07-23T00:33:16.471Z,87.9
2018-07-23T00:34:16.730Z,87.9
2018-07-23T00:35:16.996Z,87.8
2018-07-23T00:36:16.235Z,87.8
2018-07-23T00:37:16.500Z,87.8
2018-07-23T00:38:16.761Z,87.8
2018-07-23T00:39:17.033Z,87.9
2018-07-23T00:40:16.309Z,87.9
2018-07-23T00:41:16.336Z,87.9
2018-07-23T00:42:16.592Z,88.1
2018-07-23T00:43:16.857Z,88.1
2018-07-23T00:44:17.106Z,88.2
2018-07-23T00:45:16.374Z,88.1
2018-07-23T00:46:16.608Z,88.0
2018-07-23T00:47:16.867Z,88.0
2018-07-23T00:48:17.128Z,87.9
2018-07-23T00:49:16.396Z,87.9
2018-07-23T00:50:16.644Z,87.9
2018-07-23T00:51:16.704Z,88.0
2018-07-23T00:52:16.951Z,88.2
2018-07-23T00:53:17.196Z,88.2
2018-07-23T00:54:16.451Z,88.3
2018-07-23T00:55:16.723Z,88.2
2018-07-23T00:56:16.976Z,88.2
2018-07-23T00:57:17.235Z,88.2
2018-07-23T00:58:16.496Z,88.2
2018-07-23T00:59:16.758Z,88.2
2018-07-23T01:00:17.015Z,88.3
2018-07-23T01:01:17.066Z,88.3
2018-07-23T01:02:16.326Z,88.4
2018-07-23T01:03:16.622Z,88.3
2018-07-23T01:04:16.880Z,88.3
2018-07-23T01:05:17.152Z,88.4
2018-07-23T01:06:16.408Z,88.4
2018-07-23T01:07:16.663Z,88.5
2018-07-23T01:08:16.919Z,88.3
2018-07-23T01:09:17.199Z,88.3
2018-07-23T01:10:16.468Z,88.6
2018-07-23T01:11:16.508Z,88.4
2018-07-23T01:12:16.776Z,88.4
2018-07-23T01:13:17.043Z,88.5
2018-07-23T01:14:16.305Z,88.2
2018-07-23T01:15:16.576Z,88.4
2018-07-23T01:16:16.840Z,88.5
2018-07-23T01:17:17.101Z,88.6
2018-07-23T01:18:16.356Z,88.7
2018-07-23T01:19:16.623Z,88.8
2018-07-23T01:20:16.882Z,88.7
2018-07-23T01:21:16.948Z,88.8
2018-07-23T01:22:17.208Z,88.9
2018-07-23T01:23:16.463Z,88.3
2018-07-23T01:24:16.728Z,88.2
2018-07-23T01:25:16.989Z,87.5
2018-07-23T01:26:17.257Z,87.7
2018-07-23T01:27:16.511Z,87.9
2018-07-23T01:28:16.769Z,88.3
2018-07-23T01:29:17.047Z,88.4
2018-07-23T01:30:16.333Z,88.6
2018-07-23T01:31:16.359Z,88.8
2018-07-23T01:32:16.637Z,88.4
2018-07-23T01:33:16.897Z,88.3
2018-07-23T01:34:17.169Z,88.4
2018-07-23T01:35:16.431Z,88.4
2018-07-23T01:36:16.695Z,88.4
2018-07-23T01:37:16.959Z,88.4
2018-07-23T01:38:17.219Z,88.4
2018-07-23T01:39:16.478Z,88.3
2018-07-23T01:40:16.762Z,88.3
2018-07-23T01:41:16.793Z,88.3
2018-07-23T01:42:17.055Z,88.3
2018-07-23T01:43:16.320Z,88.4
2018-07-23T01:44:16.577Z,88.4
2018-07-23T01:45:16.849Z,88.4
2018-07-23T01:46:17.113Z,88.5
2018-07-23T01:47:16.377Z,88.4
2018-07-23T01:48:16.639Z,88.4
2018-07-23T01:49:16.903Z,88.5
2018-07-23T01:50:17.175Z,88.5
2018-07-23T01:51:17.208Z,88.6
2018-07-23T01:52:16.471Z,88.7
2018-07-23T01:53:16.710Z,88.7
2018-07-23T01:54:16.938Z,88.7
2018-07-23T01:55:17.205Z,88.0
2018-07-23T01:56:16.464Z,88.1
2018-07-23T01:57:16.702Z,88.2
2018-07-23T01:58:16.957Z,88.3
2018-07-23T01:59:17.211Z,88.3
2018-07-23T02:00:16.495Z,88.4
2018-07-23T02:01:16.524Z,88.4
2018-07-23T02:02:16.801Z,88.6
2018-07-23T02:03:17.059Z,88.7
2018-07-23T02:04:16.311Z,88.7
2018-07-23T02:05:16.561Z,88.6
2018-07-23T02:06:16.810Z,88.6
2018-07-23T02:07:17.061Z,88.6
2018-07-23T02:08:16.305Z,88.6
2018-07-23T02:09:16.574Z,88.6
2018-07-23T02:10:16.833Z,88.7
2018-07-23T02:11:16.871Z,88.6
2018-07-23T02:12:17.114Z,88.5
2018-07-23T02:13:16.343Z,88.8
2018-07-23T02:14:16.608Z,89.0
2018-07-23T02:15:16.893Z,89.0
2018-07-23T02:16:17.136Z,89.4
2018-07-23T02:17:16.394Z,89.4
2018-07-23T02:18:16.814Z,89.3
2018-07-23T02:19:17.057Z,89.6
2018-07-23T02:20:16.362Z,89.7
2018-07-23T02:21:16.372Z,89.7
2018-07-23T02:22:16.629Z,89.8
2018-07-23T02:23:16.894Z,89.9
2018-07-23T02:24:17.159Z,89.7
2018-07-23T02:25:16.424Z,89.7
2018-07-23T02:26:16.680Z,89.8
2018-07-23T02:27:16.947Z,89.8
2018-07-23T02:28:17.212Z,89.7
2018-07-23T02:29:16.482Z,89.7
2018-07-23T02:30:16.745Z,89.7
2018-07-23T02:31:16.807Z,89.8
2018-07-23T02:32:17.080Z,89.9
2018-07-23T02:33:16.347Z,90.0
2018-07-23T02:34:16.611Z,90.0
2018-07-23T02:35:16.882Z,90.0
2018-07-23T02:36:17.149Z,89.9
2018-07-23T02:37:16.422Z,89.9
2018-07-23T02:38:16.696Z,89.8
2018-07-23T02:39:16.964Z,89.8
2018-07-23T02:40:17.240Z,89.8
2018-07-23T02:41:16.275Z,89.8
2018-07-23T02:42:16.573Z,90.0
2018-07-23T02:43:16.833Z,90.0
2018-07-23T02:44:17.094Z,90.0
2018-07-23T02:45:16.366Z,89.9
2018-07-23T02:46:16.625Z,89.9
2018-07-23T02:47:16.898Z,90.0
2018-07-23T02:48:17.173Z,90.0
2018-07-23T02:49:16.443Z,90.0
2018-07-23T02:50:16.696Z,90.0
2018-07-23T02:51:16.750Z,90.1
2018-07-23T02:52:17.019Z,90.1
2018-07-23T02:53:16.266Z,90.3
2018-07-23T02:54:16.528Z,90.3
2018-07-23T02:55:16.809Z,90.2
2018-07-23T02:56:17.077Z,90.3
2018-07-23T02:57:16.348Z,90.5
2018-07-23T02:58:16.602Z,90.2
2018-07-23T02:59:16.858Z,90.0
2018-07-23T03:00:17.145Z,89.9
2018-07-23T03:01:17.472Z,90.0
2018-07-23T03:02:16.732Z,89.8
2018-07-23T03:03:16.994Z,89.8
2018-07-23T03:04:16.231Z,90.0
2018-07-23T03:05:16.506Z,90.0
2018-07-23T03:06:16.768Z,90.1
2018-07-23T03:07:17.006Z,90.1
2018-07-23T03:08:16.276Z,90.2
2018-07-23T03:09:16.535Z,90.2
2018-07-23T03:10:16.815Z,90.1
2018-07-23T03:11:16.846Z,90.1
2018-07-23T03:12:17.101Z,90.1
2018-07-23T03:13:16.368Z,90.1
2018-07-23T03:14:16.620Z,90.2
2018-07-23T03:15:16.900Z,90.3
2018-07-23T03:16:17.657Z,90.2
2018-07-23T03:17:16.921Z,90.2
2018-07-23T03:18:17.186Z,90.2
2018-07-23T03:19:16.449Z,90.3
2018-07-23T03:20:16.725Z,90.3
2018-07-23T03:21:16.770Z,90.3
2018-07-23T03:22:17.030Z,90.3
2018-07-23T03:23:16.297Z,90.4
2018-07-23T03:24:16.561Z,90.3
2018-07-23T03:25:16.849Z,90.3
2018-07-23T03:26:17.126Z,90.2
2018-07-23T03:27:16.396Z,90.2
2018-07-23T03:28:16.673Z,90.3
2018-07-23T03:29:16.940Z,90.3
2018-07-23T03:30:17.228Z,90.3
2018-07-23T03:31:17.255Z,90.3
2018-07-23T03:32:16.538Z,90.4
2018-07-23T03:33:16.794Z,90.4
2018-07-23T03:34:17.050Z,90.3
2018-07-23T03:35:16.307Z,90.3
2018-07-23T03:36:16.558Z,90.3
2018-07-23T03:37:16.825Z,90.3
2018-07-23T03:38:17.087Z,90.3
2018-07-23T03:39:16.350Z,90.4
2018-07-23T03:40:16.612Z,90.4
2018-07-23T03:41:16.656Z,90.3
2018-07-23T03:42:16.947Z,90.3
2018-07-23T03:43:17.208Z,90.4
2018-07-23T03:44:16.472Z,90.4
2018-07-23T03:45:16.741Z,90.3
2018-07-23T03:46:16.996Z,90.2
2018-07-23T03:47:16.245Z,90.2
2018-07-23T03:48:16.500Z,90.1
2018-07-23T03:49:16.757Z,90.2
2018-07-23T03:50:17.031Z,90.2
2018-07-23T03:51:17.049Z,90.1
2018-07-23T03:52:16.314Z,90.2
2018-07-23T03:53:16.570Z,90.1
2018-07-23T03:54:16.830Z,90.1
2018-07-23T03:55:17.075Z,90.0
2018-07-23T03:56:16.324Z,90.0
2018-07-23T03:57:16.588Z,90.0
2018-07-23T03:58:16.853Z,89.9
2018-07-23T03:59:17.112Z,89.9
2018-07-23T04:00:16.367Z,89.9
2018-07-23T04:01:16.424Z,89.9
2018-07-23T04:02:16.689Z,90.0
2018-07-23T04:03:16.946Z,89.9
2018-07-23T04:04:17.180Z,90.1
2018-07-23T04:05:16.453Z,90.0
2018-07-23T04:06:16.719Z,90.3
2018-07-23T04:07:16.984Z,90.0
2018-07-23T04:08:17.222Z,89.4
2018-07-23T04:09:16.479Z,89.5
2018-07-23T04:10:16.759Z,89.9
2018-07-23T04:11:16.785Z,89.9
2018-07-23T04:12:17.048Z,90.0
2018-07-23T04:13:16.312Z,90.2
2018-07-23T04:14:16.588Z,90.1
2018-07-23T04:15:16.843Z,90.0
2018-07-23T04:16:17.109Z,90.1
2018-07-23T04:17:16.369Z,90.1
2018-07-23T04:18:16.626Z,89.6
2018-07-23T04:19:16.888Z,89.6
2018-07-23T04:20:17.152Z,89.7
2018-07-23T04:21:17.199Z,89.8
2018-07-23T04:22:16.474Z,89.9
2018-07-23T04:23:16.728Z,89.9
2018-07-23T04:24:16.993Z,89.8
2018-07-23T04:25:16.273Z,89.8
2018-07-23T04:26:16.540Z,89.8
2018-07-23T04:27:16.817Z,89.9
2018-07-23T04:28:17.079Z,89.7
2018-07-23T04:29:16.336Z,89.4
2018-07-23T04:30:16.617Z,89.2
2018-07-23T04:31:16.642Z,89.3
2018-07-23T04:32:16.923Z,89.4
2018-07-23T04:33:17.203Z,88.9
2018-07-23T04:34:16.466Z,89.0
2018-07-23T04:35:16.739Z,88.9
2018-07-23T04:36:16.996Z,89.1
2018-07-23T04:37:16.261Z,89.1
2018-07-23T04:38:16.527Z,88.8
2018-07-23T04:39:16.790Z,88.5
2018-07-23T04:40:17.050Z,88.3
2018-07-23T04:41:17.101Z,88.3
2018-07-23T04:42:16.459Z,88.7
2018-07-23T04:43:16.727Z,88.5
2018-07-23T04:44:16.986Z,88.2
2018-07-23T04:45:17.256Z,88.2
2018-07-23T04:46:16.525Z,88.0
2018-07-23T04:47:16.785Z,87.8
2018-07-23T04:48:17.049Z,88.0
2018-07-23T04:49:16.381Z,87.7
2018-07-23T04:50:16.672Z,87.5
2018-07-23T04:51:16.709Z,87.5
2018-07-23T04:52:16.973Z,87.4
2018-07-23T04:53:17.238Z,87.0
2018-07-23T04:54:16.509Z,87.0
2018-07-23T04:55:16.769Z,87.1
2018-07-23T04:56:17.038Z,86.6
2018-07-23T04:57:16.300Z,86.4
2018-07-23T04:58:16.565Z,86.0
2018-07-23T04:59:16.838Z,85.8
2018-07-23T05:00:17.105Z,86.0
2018-07-23T05:01:17.150Z,86.0
2018-07-23T05:02:16.417Z,85.8
2018-07-23T05:03:16.687Z,85.5
2018-07-23T05:04:16.954Z,85.3
2018-07-23T05:05:17.223Z,85.1
2018-07-23T05:06:16.479Z,84.9
2018-07-23T05:07:16.744Z,84.9
2018-07-23T05:08:17.012Z,84.7
2018-07-23T05:09:16.260Z,85.0
2018-07-23T05:10:16.530Z,85.3
2018-07-23T05:11:16.571Z,85.3
2018-07-23T05:12:16.868Z,85.5
2018-07-23T05:13:17.115Z,84.9
2018-07-23T05:14:16.375Z,84.3
2018-07-23T05:15:16.639Z,84.3
2018-07-23T05:16:16.895Z,83.5
2018-07-23T05:17:17.137Z,83.9
2018-07-23T05:18:16.411Z,84.3
2018-07-23T05:19:16.674Z,83.7
2018-07-23T05:20:16.937Z,83.4
2018-07-23T05:21:16.973Z,83.4
2018-07-23T05:22:17.205Z,83.6
2018-07-23T05:23:16.470Z,82.7
2018-07-23T05:24:16.732Z,83.1
2018-07-23T05:25:16.997Z,82.5
2018-07-23T05:26:16.443Z,82.2
2018-07-23T05:27:16.708Z,81.7
2018-07-23T05:28:16.957Z,81.7
2018-07-23T05:29:17.215Z,81.5
2018-07-23T05:30:16.463Z,81.0
2018-07-23T05:31:16.511Z,81.4
2018-07-23T05:32:16.783Z,81.4
2018-07-23T05:33:17.054Z,81.1
2018-07-23T05:34:16.306Z,81.2
2018-07-23T05:35:16.598Z,80.7
2018-07-23T05:36:16.864Z,81.1
2018-07-23T05:37:17.160Z,81.0
2018-07-23T05:38:16.524Z,81.0
2018-07-23T05:39:16.793Z,81.9
2018-07-23T05:40:17.084Z,82.4
2018-07-23T05:41:17.108Z,82.3
2018-07-23T05:42:16.445Z,81.9
2018-07-23T05:43:16.728Z,82.1
2018-07-23T05:44:16.986Z,81.1
2018-07-23T05:45:17.253Z,81.1
2018-07-23T05:46:16.831Z,81.0
2018-07-23T05:47:17.091Z,81.2
2018-07-23T05:48:16.350Z,81.1
2018-07-23T05:49:16.614Z,80.9
2018-07-23T05:50:16.887Z,80.5
2018-07-23T05:51:16.909Z,80.4
2018-07-23T05:52:17.176Z,80.4
2018-07-23T05:53:16.431Z,79.4
2018-07-23T05:54:16.692Z,79.4
2018-07-23T05:55:16.968Z,79.4
2018-07-23T05:56:17.233Z,79.1
2018-07-23T05:57:16.503Z,78.6
2018-07-23T05:58:16.771Z,78.5
2018-07-23T05:59:17.031Z,78.5
2018-07-23T06:00:16.306Z,78.6
2018-07-23T06:01:16.350Z,78.1
2018-07-23T06:02:16.613Z,78.8
2018-07-23T06:03:16.869Z,78.5
2018-07-23T06:04:17.116Z,77.3
2018-07-23T06:05:16.391Z,77.5
2018-07-23T06:06:16.717Z,77.3
2018-07-23T06:07:16.982Z,77.3
2018-07-23T06:08:17.244Z,76.9
2018-07-23T06:09:16.496Z,77.0
2018-07-23T06:10:16.758Z,76.6
2018-07-23T06:11:16.779Z,76.4
2018-07-23T06:12:17.035Z,76.2
2018-07-23T06:13:16.538Z,76.4
2018-07-23T06:14:16.808Z,75.9
2018-07-23T06:15:17.075Z,75.7
2018-07-23T06:16:16.340Z,75.8
2018-07-23T06:17:16.626Z,75.6
2018-07-23T06:18:16.908Z,76.1
2018-07-23T06:19:17.161Z,75.8
2018-07-23T06:20:16.440Z,75.5
2018-07-23T06:21:16.479Z,75.4
2018-07-23T06:22:16.741Z,75.1
2018-07-23T06:23:17.023Z,75.0
2018-07-23T06:24:16.287Z,75.1
2018-07-23T06:25:16.556Z,74.7
2018-07-23T06:26:16.815Z,75.0
2018-07-23T06:27:17.076Z,74.7
2018-07-23T06:28:16.344Z,74.8
2018-07-23T06:29:16.599Z,74.6
2018-07-23T06:30:17.069Z,74.2
2018-07-23T06:31:16.908Z,74.3
2018-07-23T06:32:17.188Z,74.3
2018-07-23T06:33:16.500Z,73.6
2018-07-23T06:34:16.772Z,73.9
2018-07-23T06:35:17.047Z,73.7
2018-07-23T06:36:16.313Z,73.5
2018-07-23T06:37:16.560Z,73.6
2018-07-23T06:38:16.819Z,73.5
2018-07-23T06:39:17.080Z,74.0
2018-07-23T06:40:16.368Z,74.9
2018-07-23T06:41:16.417Z,75.2
2018-07-23T06:42:16.677Z,74.4
2018-07-23T06:43:17.000Z,73.6
2018-07-23T06:44:16.278Z,73.3
2018-07-23T06:45:16.557Z,72.3
2018-07-23T06:46:16.820Z,72.2
2018-07-23T06:47:17.088Z,72.0
2018-07-23T06:48:16.363Z,71.4
2018-07-23T06:49:16.638Z,71.7
2018-07-23T06:50:16.913Z,70.7
2018-07-23T06:51:16.951Z,70.1
2018-07-23T06:52:17.216Z,70.0
2018-07-23T06:53:16.474Z,70.4
2018-07-23T06:54:16.740Z,69.4
2018-07-23T06:55:17.005Z,69.1
2018-07-23T06:56:16.276Z,68.3
2018-07-23T06:57:16.621Z,67.8
2018-07-23T06:58:16.890Z,67.9
2018-07-23T06:59:17.150Z,69.0
2018-07-23T07:00:16.426Z,69.4
2018-07-23T07:01:16.506Z,70.3
2018-07-23T07:02:16.781Z,70.6
2018-07-23T07:03:17.224Z,70.6
2018-07-23T07:04:16.509Z,70.1
2018-07-23T07:05:16.790Z,68.2
2018-07-23T07:06:17.130Z,67.3
2018-07-23T07:07:16.399Z,67.5
2018-07-23T07:08:16.673Z,66.1
2018-07-23T07:09:16.951Z,65.4
2018-07-23T07:10:17.228Z,65.0
2018-07-23T07:11:16.263Z,65.2
2018-07-23T07:12:16.548Z,64.9
2018-07-23T07:13:16.819Z,64.8
2018-07-23T07:14:17.087Z,65.0
2018-07-23T07:15:16.370Z,64.1
2018-07-23T07:16:16.642Z,64.0
2018-07-23T07:17:16.918Z,63.5
2018-07-23T07:18:17.200Z,63.9
2018-07-23T07:19:16.466Z,61.4
2018-07-23T07:20:16.767Z,62.1
2018-07-23T07:21:16.815Z,62.9
2018-07-23T07:22:17.071Z,63.0
2018-07-23T07:23:16.348Z,62.1
2018-07-23T07:24:16.635Z,62.0
2018-07-23T07:25:16.912Z,60.4
2018-07-23T07:26:17.181Z,59.5
2018-07-23T07:27:16.444Z,58.4
2018-07-23T07:28:16.709Z,58.0
2018-07-23T07:29:16.995Z,57.0
2018-07-23T07:30:16.295Z,54.3
2018-07-23T07:31:16.322Z,52.8
2018-07-23T07:32:16.593Z,52.3
2018-07-23T07:33:16.854Z,52.2
2018-07-23T07:34:17.130Z,50.8
2018-07-23T07:35:16.401Z,51.3
2018-07-23T07:36:16.662Z,52.1
2018-07-23T07:37:16.929Z,50.8
2018-07-23T07:38:17.320Z,50.0
2018-07-23T07:39:16.647Z,48.9
2018-07-23T07:40:16.926Z,48.4
2018-07-23T07:41:16.977Z,47.9
2018-07-23T07:42:17.243Z,49.0
2018-07-23T07:43:16.511Z,47.5
2018-07-23T07:44:16.776Z,48.6
2018-07-23T07:45:17.058Z,49.3
2018-07-23T07:46:16.330Z,47.1
2018-07-23T07:47:16.599Z,48.2
2018-07-23T07:48:16.866Z,47.0
2018-07-23T07:49:17.143Z,46.2
2018-07-23T07:50:16.454Z,44.9
2018-07-23T07:51:16.464Z,44.1
2018-07-23T07:52:16.735Z,44.8
2018-07-23T07:53:17.006Z,45.3
2018-07-23T07:54:16.269Z,45.0
2018-07-23T07:55:16.551Z,47.2
2018-07-23T07:56:16.818Z,47.3
2018-07-23T07:57:17.082Z,46.5
2018-07-23T07:58:16.355Z,48.8
2018-07-23T07:59:16.788Z,49.2
2018-07-23T08:00:17.077Z,49.4
2018-07-23T08:01:17.137Z,50.0
2018-07-23T08:02:16.399Z,49.4
2018-07-23T08:03:16.666Z,47.9
2018-07-23T08:04:16.933Z,46.6
2018-07-23T08:05:17.201Z,46.5
2018-07-23T08:06:16.458Z,48.6
2018-07-23T08:07:16.879Z,46.3
2018-07-23T08:08:17.129Z,47.7
2018-07-23T08:09:16.413Z,44.5
2018-07-23T08:10:16.674Z,45.3
2018-07-23T08:11:16.728Z,46.7
2018-07-23T08:12:16.996Z,47.2
2018-07-23T08:13:16.252Z,47.5
2018-07-23T08:14:16.517Z,47.4
2018-07-23T08:15:16.785Z,47.6
2018-07-23T08:16:17.063Z,47.1
2018-07-23T08:17:16.329Z,46.3
2018-07-23T08:18:16.586Z,45.7
2018-07-23T08:19:16.847Z,45.0
2018-07-23T08:20:17.108Z,45.4
2018-07-23T08:21:17.159Z,45.6
2018-07-23T08:22:16.417Z,45.8
2018-07-23T08:23:16.671Z,45.3
2018-07-23T08:24:16.928Z,45.3
2018-07-23T08:25:17.203Z,44.4
2018-07-23T08:26:16.462Z,45.2
2018-07-23T08:27:16.728Z,46.2
2018-07-23T08:28:16.975Z,45.4
2018-07-23T08:29:17.245Z,45.0
2018-07-23T08:30:16.492Z,45.4
2018-07-23T08:31:16.533Z,46.6
2018-07-23T08:32:16.861Z,46.4
2018-07-23T08:33:17.165Z,46.0
2018-07-23T08:34:16.412Z,46.3
2018-07-23T08:35:16.682Z,47.0
2018-07-23T08:36:16.940Z,47.7
2018-07-23T08:37:17.427Z,47.2
2018-07-23T08:38:16.765Z,45.9
2018-07-23T08:39:17.041Z,45.6
2018-07-23T08:40:16.296Z,45.5
2018-07-23T08:41:16.370Z,44.9
2018-07-23T08:42:16.623Z,44.2
2018-07-23T08:43:16.872Z,43.4
2018-07-23T08:44:17.156Z,43.2
2018-07-23T08:45:16.429Z,42.3
2018-07-23T08:46:16.671Z,42.0
2018-07-23T08:47:16.932Z,40.8
2018-07-23T08:48:17.177Z,40.8
2018-07-23T08:49:16.444Z,39.8
2018-07-23T08:50:16.723Z,40.5
2018-07-23T08:51:16.813Z,39.7
2018-07-23T08:52:17.097Z,38.9
2018-07-23T08:53:16.350Z,39.7
2018-07-23T08:54:16.599Z,40.4
2018-07-23T08:55:16.867Z,39.6
2018-07-23T08:56:17.297Z,40.3
2018-07-23T08:57:16.664Z,40.4
2018-07-23T08:58:16.929Z,38.5
2018-07-23T08:59:17.188Z,38.4
2018-07-23T09:00:16.456Z,38.8
2018-07-23T09:01:16.509Z,38.6
2018-07-23T09:02:16.824Z,38.8
2018-07-23T09:03:17.115Z,39.2
2018-07-23T09:04:16.387Z,38.0
2018-07-23T09:05:16.660Z,39.8
2018-07-23T09:06:16.920Z,39.5
2018-07-23T09:07:17.188Z,39.0
2018-07-23T09:08:16.740Z,43.1
2018-07-23T09:09:17.012Z,43.7
2018-07-23T09:10:16.277Z,44.4
2018-07-23T09:11:16.324Z,42.3
2018-07-23T09:12:16.585Z,40.2
2018-07-23T09:13:16.840Z,38.7
2018-07-23T09:14:17.107Z,37.9
2018-07-23T09:15:16.375Z,39.3
2018-07-23T09:16:16.636Z,42.2
2018-07-23T09:17:16.989Z,40.5
2018-07-23T09:18:16.308Z,38.5
2018-07-23T09:19:16.575Z,38.5
2018-07-23T09:20:16.849Z,37.3
2018-07-23T09:21:16.894Z,37.0
2018-07-23T09:22:17.154Z,37.7
2018-07-23T09:23:16.416Z,35.9
2018-07-23T09:24:16.675Z,36.7
2018-07-23T09:25:16.938Z,33.7
2018-07-23T09:26:17.190Z,34.1
2018-07-23T09:27:16.467Z,33.7
2018-07-23T09:28:16.734Z,33.4
2018-07-23T09:29:16.995Z,33.1
2018-07-23T09:30:16.318Z,34.2
2018-07-23T09:31:16.314Z,36.6
2018-07-23T09:32:16.590Z,36.7
2018-07-23T09:33:16.845Z,36.0
2018-07-23T09:34:17.104Z,38.3
2018-07-23T09:35:16.372Z,40.1
2018-07-23T09:36:16.631Z,40.7
2018-07-23T09:37:17.010Z,40.2
2018-07-23T09:38:16.287Z,39.7
2018-07-23T09:39:16.568Z,37.8
2018-07-23T09:40:16.844Z,40.2
2018-07-23T09:41:16.873Z,41.0
2018-07-23T09:42:17.131Z,41.5
2018-07-23T09:43:16.402Z,38.4
2018-07-23T09:44:16.668Z,38.0
2018-07-23T09:45:16.938Z,38.0
2018-07-23T09:46:17.188Z,32.4
2018-07-23T09:47:16.456Z,32.2
2018-07-23T09:48:16.717Z,34.7
2018-07-23T09:49:17.002Z,37.7
2018-07-23T09:50:16.277Z,38.0
2018-07-23T09:51:16.322Z,38.8
2018-07-23T09:52:16.581Z,37.4
2018-07-23T09:53:16.845Z,35.9
2018-07-23T09:54:17.104Z,35.7
2018-07-23T09:55:16.372Z,35.5
2018-07-23T09:56:16.623Z,36.0
2018-07-23T09:57:16.891Z,37.0
2018-07-23T09:58:17.150Z,37.8
2018-07-23T09:59:16.405Z,38.3
2018-07-23T10:00:16.680Z,36.7
2018-07-23T10:01:16.723Z,35.6
2018-07-23T10:02:17.038Z,36.3
2018-07-23T10:03:16.547Z,38.4
2018-07-23T10:04:16.841Z,35.1
2018-07-23T10:05:17.135Z,35.4
2018-07-23T10:06:16.415Z,35.7
2018-07-23T10:07:16.688Z,33.9
2018-07-23T10:08:16.960Z,33.8
2018-07-23T10:09:17.224Z,33.6
2018-07-23T10:10:16.494Z,34.9
2018-07-23T10:11:16.560Z,34.8
2018-07-23T10:12:16.818Z,35.3
2018-07-23T10:13:17.078Z,38.1
2018-07-23T10:14:16.370Z,39.0
2018-07-23T10:15:16.651Z,37.7
2018-07-23T10:16:16.913Z,35.1
2018-07-23T10:17:17.176Z,34.4
2018-07-23T10:18:16.453Z,34.1
2018-07-23T10:19:16.680Z,32.5
2018-07-23T10:20:16.936Z,32.5
2018-07-23T10:21:16.984Z,34.0
2018-07-23T10:22:17.383Z,33.0
2018-07-23T10:23:16.708Z,34.2
2018-07-23T10:24:16.973Z,33.7
2018-07-23T10:25:17.266Z,36.8
2018-07-23T10:26:16.520Z,36.6
2018-07-23T10:27:16.787Z,35.0
2018-07-23T10:28:17.039Z,33.7
2018-07-23T10:29:16.301Z,33.2
2018-07-23T10:30:16.562Z,34.5
2018-07-23T10:31:16.625Z,33.4
2018-07-23T10:32:16.886Z,31.1
2018-07-23T10:33:17.156Z,30.3
2018-07-23T10:34:16.419Z,30.2
2018-07-23T10:35:16.681Z,28.7
2018-07-23T10:36:16.943Z,30.0
2018-07-23T10:37:17.219Z,31.2
2018-07-23T10:38:16.498Z,31.9
2018-07-23T10:39:16.773Z,31.2
2018-07-23T10:40:17.042Z,30.7
2018-07-23T10:41:17.095Z,30.0
2018-07-23T10:42:16.358Z,29.3
2018-07-23T10:43:16.626Z,31.6
2018-07-23T10:44:16.885Z,31.1
2018-07-23T10:45:17.136Z,30.5
2018-07-23T10:46:16.398Z,30.2
2018-07-23T10:47:16.666Z,29.5
2018-07-23T10:48:16.927Z,30.7
2018-07-23T10:49:17.188Z,30.8
2018-07-23T10:50:16.468Z,30.2
2018-07-23T10:51:16.519Z,31.5
2018-07-23T10:52:16.786Z,33.8
2018-07-23T10:53:17.050Z,34.3
2018-07-23T10:54:16.312Z,35.1
2018-07-23T10:55:16.567Z,32.9
2018-07-23T10:56:16.816Z,32.0
2018-07-23T10:57:17.314Z,31.3
2018-07-23T10:58:16.614Z,30.8
2018-07-23T10:59:16.882Z,30.3
2018-07-23T11:00:17.155Z,29.2
2018-07-23T11:01:17.195Z,30.7
2018-07-23T11:02:16.455Z,28.4
2018-07-23T11:03:16.708Z,29.1
2018-07-23T11:04:17.108Z,29.2
2018-07-23T11:05:16.383Z,29.9
2018-07-23T11:06:16.653Z,30.5
2018-07-23T11:07:16.974Z,31.6
2018-07-23T11:08:17.238Z,31.2
2018-07-23T11:09:16.507Z,31.9
2018-07-23T11:10:16.780Z,28.7
2018-07-23T11:11:16.827Z,29.7
2018-07-23T11:12:17.092Z,30.4
2018-07-23T11:13:16.371Z,31.5
2018-07-23T11:14:16.647Z,30.0
2018-07-23T11:15:16.912Z,30.5
2018-07-23T11:16:17.174Z,30.1
2018-07-23T11:17:16.439Z,30.2
2018-07-23T11:18:16.703Z,31.3
2018-07-23T11:19:17.174Z,30.2
2018-07-23T11:20:16.522Z,29.2
2018-07-23T11:21:16.559Z,31.6
2018-07-23T11:22:16.829Z,31.9
2018-07-23T11:23:17.088Z,30.6
2018-07-23T11:24:16.348Z,30.7
2018-07-23T11:25:40.659Z,30.5
2018-07-23T11:26:17.043Z,31.0
2018-07-23T11:27:16.316Z,28.6
2018-07-23T11:28:16.570Z,28.5
2018-07-23T11:29:16.836Z,28.3
2018-07-23T11:30:17.104Z,29.2
2018-07-23T11:31:17.149Z,29.5
2018-07-23T11:32:16.425Z,29.7
2018-07-23T11:33:16.689Z,29.9
2018-07-23T11:34:16.966Z,29.4
2018-07-23T11:35:17.251Z,29.7
2018-07-23T11:36:16.517Z,29.4
2018-07-23T11:37:16.782Z,31.5
2018-07-23T11:38:17.042Z,30.2
2018-07-23T11:39:16.315Z,29.6
2018-07-23T11:40:16.590Z,31.7
2018-07-23T11:41:16.637Z,31.3
2018-07-23T11:42:16.899Z,31.3
2018-07-23T11:43:17.157Z,30.7
2018-07-23T11:44:16.434Z,31.3
2018-07-23T11:45:16.821Z,30.8
2018-07-23T11:46:25.348Z,31.5
2018-07-23T11:47:16.721Z,32.1
2018-07-23T11:48:17.057Z,29.7
2018-07-23T11:49:16.315Z,29.8
2018-07-23T11:50:16.588Z,29.0
2018-07-23T11:51:16.628Z,29.4
2018-07-23T11:52:16.908Z,30.6
2018-07-23T11:53:17.305Z,30.7
2018-07-23T11:54:16.589Z,30.9
2018-07-23T11:55:16.858Z,31.2
2018-07-23T11:56:17.119Z,30.7
2018-07-23T11:57:16.379Z,32.1
2018-07-23T11:58:16.635Z,31.9
2018-07-23T11:59:16.888Z,32.6
2018-07-23T12:00:17.213Z,32.6
2018-07-23T12:01:17.254Z,33.3
2018-07-23T12:02:16.511Z,33.6
2018-07-23T12:03:16.788Z,35.3
2018-07-23T12:04:17.246Z,35.5
2018-07-23T12:05:16.578Z,35.4
2018-07-23T12:06:16.844Z,35.0
2018-07-23T12:07:17.104Z,35.6
2018-07-23T12:08:16.380Z,36.1
2018-07-23T12:09:16.647Z,35.1
2018-07-23T12:10:16.917Z,34.7
2018-07-23T12:11:16.950Z,35.3
2018-07-23T12:12:17.222Z,35.1
2018-07-23T12:13:16.477Z,35.1
2018-07-23T12:14:16.739Z,35.4
2018-07-23T12:15:16.993Z,35.8
2018-07-23T12:16:16.256Z,34.5
2018-07-23T12:17:16.635Z,36.4
2018-07-23T12:18:16.901Z,35.3
2018-07-23T12:19:17.308Z,36.2
2018-07-23T12:20:16.575Z,36.6
2018-07-23T12:21:16.620Z,37.0
2018-07-23T12:22:16.891Z,37.0
2018-07-23T12:23:17.164Z,36.1
2018-07-23T12:24:16.433Z,36.1
2018-07-23T12:25:16.704Z,35.0
2018-07-23T12:26:16.972Z,34.7
2018-07-23T12:27:17.234Z,34.2
2018-07-23T12:28:16.493Z,36.3
2018-07-23T12:29:16.765Z,36.1
2018-07-23T12:30:17.041Z,36.4
2018-07-23T12:31:17.087Z,37.0
2018-07-23T12:32:16.391Z,36.2
2018-07-23T12:33:16.654Z,37.6
2018-07-23T12:34:16.929Z,38.9
2018-07-23T12:35:17.229Z,38.4
2018-07-23T12:36:16.502Z,37.9
2018-07-23T12:37:16.773Z,36.7
2018-07-23T12:38:17.028Z,36.7
2018-07-23T12:39:16.322Z,37.0
2018-07-23T12:40:16.597Z,38.1
2018-07-23T12:41:16.634Z,39.6
2018-07-23T12:42:16.908Z,38.8
2018-07-23T12:43:17.179Z,38.5
2018-07-23T12:44:16.439Z,37.8
2018-07-23T12:45:16.701Z,37.9
2018-07-23T12:46:16.970Z,38.3
2018-07-23T12:47:17.330Z,37.5
2018-07-23T12:48:16.592Z,37.4
2018-07-23T12:49:17.147Z,37.6
2018-07-23T12:50:16.411Z,38.0
2018-07-23T12:51:16.456Z,38.4
2018-07-23T12:52:16.720Z,38.9
2018-07-23T12:53:16.973Z,40.2
2018-07-23T12:54:17.233Z,40.4
2018-07-23T12:55:16.499Z,40.0
2018-07-23T12:56:16.769Z,41.4
2018-07-23T12:57:17.044Z,40.0
2018-07-23T12:58:16.300Z,39.7
2018-07-23T12:59:16.564Z,39.6
2018-07-23T13:00:16.842Z,39.5
2018-07-23T13:01:16.879Z,39.4
2018-07-23T13:02:17.146Z,39.5
2018-07-23T13:03:16.414Z,40.0
2018-07-23T13:04:16.687Z,41.6
2018-07-23T13:05:16.961Z,41.1
2018-07-23T13:06:17.236Z,41.3
2018-07-23T13:07:16.507Z,41.2
2018-07-23T13:08:16.782Z,41.6
2018-07-23T13:09:17.047Z,40.9
2018-07-23T13:10:16.315Z,41.4
2018-07-23T13:11:16.357Z,41.0
2018-07-23T13:12:16.622Z,41.1
2018-07-23T13:13:16.882Z,40.1
2018-07-23T13:14:17.147Z,39.4
2018-07-23T13:15:16.409Z,39.3
2018-07-23T13:16:16.681Z,39.9
2018-07-23T13:17:16.940Z,39.5
2018-07-23T13:18:17.466Z,39.2